createdAt,value
2024-01-05T00:00:09.692Z,6.71
2024-01-05T00:02:36.231Z,6.72
2024-01-05T00:05:02.757Z,6.72
2024-01-05T00:07:30.269Z,6.72
2024-01-05T00:09:59.183Z,6.73
2024-01-05T00:12:26.433Z,6.72
2024-01-05T00:14:53.024Z,6.72
2024-01-05T00:17:19.605Z,6.73
2024-01-05T00:19:49.014Z,6.73
2024-01-05T00:22:15.744Z,6.74
2024-01-05T00:24:44.010Z,6.76
2024-01-05T00:27:10.501Z,6.76
2024-01-05T00:29:41.404Z,6.79
2024-01-05T00:32:07.960Z,6.78
2024-01-05T00:34:37.452Z,6.80
2024-01-05T00:37:06.563Z,6.80
2024-01-05T00:39:33.572Z,6.81
2024-01-05T00:42:03.070Z,6.83
2024-01-05T00:44:29.946Z,6.85
2024-01-05T00:46:56.413Z,6.87
2024-01-05T00:49:23.081Z,6.88
2024-01-05T00:51:52.014Z,6.89
2024-01-05T00:54:18.585Z,6.89
2024-01-05T00:56:45.423Z,6.90
2024-01-05T00:59:12.796Z,6.90
2024-01-05T01:01:39.348Z,6.91
2024-01-05T01:04:08.225Z,6.94
2024-01-05T01:06:34.851Z,6.94
2024-01-05T01:09:03.665Z,6.93
2024-01-05T01:11:32.616Z,6.94
2024-01-05T01:13:59.389Z,6.94
2024-01-05T01:16:25.972Z,6.94
2024-01-05T01:18:54.969Z,6.95
2024-01-05T01:21:24.973Z,6.94
2024-01-05T01:23:52.517Z,6.94
2024-01-05T01:26:21.770Z,6.96
2024-01-05T01:28:48.336Z,6.95
2024-01-05T01:31:14.954Z,6.95
2024-01-05T01:33:41.672Z,6.96
2024-01-05T01:36:08.444Z,6.97
2024-01-05T01:38:35.125Z,6.98
2024-01-05T01:41:01.731Z,6.97
2024-01-05T01:43:28.905Z,6.96
2024-01-05T01:46:01.893Z,6.90
2024-01-05T01:48:30.806Z,6.84
2024-01-05T01:50:58.087Z,6.76
2024-01-05T01:53:28.516Z,6.76
2024-01-05T01:55:58.228Z,6.75
2024-01-05T01:58:26.029Z,6.75
2024-01-05T02:00:52.672Z,6.74
2024-01-05T02:03:20.457Z,6.76
2024-01-05T02:05:49.462Z,6.78
2024-01-05T02:08:16.733Z,6.80
2024-01-05T02:10:45.482Z,6.82
2024-01-05T02:13:14.383Z,6.86
2024-01-05T02:15:40.989Z,6.89
2024-01-05T02:18:19.220Z,6.91
2024-01-05T02:20:46.332Z,6.95
2024-01-05T02:23:39.471Z,6.97
2024-01-05T02:26:06.558Z,7.00
2024-01-05T02:28:35.585Z,7.01
2024-01-05T02:31:04.860Z,7.02
2024-01-05T02:33:33.772Z,7.04
2024-01-05T02:36:02.659Z,7.05
2024-01-05T02:38:29.255Z,7.06
2024-01-05T02:40:57.100Z,7.05
2024-01-05T02:43:26.478Z,7.06
2024-01-05T02:45:56.047Z,7.08
2024-01-05T02:48:22.945Z,7.08
2024-01-05T02:50:49.589Z,7.09
2024-01-05T02:53:21.046Z,7.12
2024-01-05T02:55:47.598Z,7.14
2024-01-05T02:58:14.508Z,7.15
2024-01-05T03:00:41.078Z,7.17
2024-01-05T03:03:12.416Z,7.19
2024-01-05T03:05:39.834Z,7.23
2024-01-05T03:08:09.394Z,7.23
2024-01-05T03:10:36.231Z,7.26
2024-01-05T03:13:03.738Z,7.28
2024-01-05T03:15:32.585Z,7.30
2024-01-05T03:18:00.258Z,7.30
2024-01-05T03:20:29.474Z,7.32
2024-01-05T03:22:56.028Z,7.36
2024-01-05T03:25:22.512Z,7.41
2024-01-05T03:27:53.982Z,7.44
2024-01-05T03:30:20.736Z,7.51
2024-01-05T03:32:55.272Z,7.54
2024-01-05T03:35:26.755Z,7.57
2024-01-05T03:37:55.876Z,7.60
2024-01-05T03:40:25.010Z,7.61
2024-01-05T03:42:51.711Z,7.63
2024-01-05T03:45:18.208Z,7.65
2024-01-05T03:47:44.992Z,7.64
2024-01-05T03:50:11.632Z,7.65
2024-01-05T03:52:40.387Z,7.67
2024-01-05T03:55:07.173Z,7.68
2024-01-05T03:57:33.803Z,7.70
2024-01-05T04:00:01.183Z,7.71
2024-01-05T04:02:27.822Z,7.74
2024-01-05T04:04:58.929Z,7.74
2024-01-05T04:07:25.498Z,7.77
2024-01-05T04:09:54.353Z,7.80
2024-01-05T04:12:21.001Z,7.81
2024-01-05T04:14:47.588Z,7.81
2024-01-05T04:17:14.127Z,7.83
2024-01-05T04:19:43.633Z,7.83
2024-01-05T04:22:12.804Z,7.82
2024-01-05T04:24:39.402Z,7.81
2024-01-05T04:27:11.643Z,7.82
2024-01-05T04:29:42.836Z,7.81
2024-01-05T04:32:09.500Z,7.81
2024-01-05T04:34:36.130Z,7.83
2024-01-05T04:37:05.377Z,7.83
2024-01-05T04:39:32.066Z,7.82
2024-01-05T04:41:58.710Z,7.81
2024-01-05T04:44:27.852Z,7.83
2024-01-05T04:46:54.357Z,7.81
2024-01-05T04:49:20.996Z,7.82
2024-01-05T04:51:47.908Z,7.80
2024-01-05T04:54:14.637Z,7.77
2024-01-05T04:56:43.755Z,7.77
2024-01-05T04:59:10.326Z,7.77
2024-01-05T05:01:36.961Z,7.78
2024-01-05T05:04:03.533Z,7.78
2024-01-05T05:06:30.135Z,7.78
2024-01-05T05:08:59.614Z,7.78
2024-01-05T05:11:26.216Z,7.78
2024-01-05T05:13:52.705Z,7.74
2024-01-05T05:16:19.782Z,7.73
2024-01-05T05:18:50.615Z,7.74
2024-01-05T05:21:17.405Z,7.74
2024-01-05T05:23:46.262Z,7.77
2024-01-05T05:26:15.122Z,7.75
2024-01-05T05:28:44.113Z,7.75
2024-01-05T05:31:11.963Z,7.76
2024-01-05T05:33:41.429Z,7.77
2024-01-05T05:36:10.404Z,7.75
2024-01-05T05:38:36.961Z,7.76
2024-01-05T05:41:05.583Z,7.78
2024-01-05T05:43:32.152Z,7.76
2024-01-05T05:46:01.269Z,7.82
2024-01-05T05:48:28.053Z,7.81
2024-01-05T05:50:54.835Z,7.76
2024-01-05T05:53:21.356Z,7.68
2024-01-05T05:55:47.895Z,7.62
2024-01-05T05:58:14.601Z,7.57
2024-01-05T06:00:43.782Z,7.54
2024-01-05T06:03:12.551Z,7.53
2024-01-05T06:05:43.178Z,7.52
2024-01-05T06:08:12.637Z,7.52
2024-01-05T06:10:41.418Z,7.50
2024-01-05T06:13:10.549Z,7.48
2024-01-05T06:15:39.648Z,7.44
2024-01-05T06:18:07.070Z,7.44
2024-01-05T06:20:35.926Z,7.46
2024-01-05T06:23:04.778Z,7.46
2024-01-05T06:25:31.316Z,7.46
2024-01-05T06:27:57.970Z,7.42
2024-01-05T06:30:24.550Z,7.42
2024-01-05T06:32:51.146Z,7.40
2024-01-05T06:35:17.678Z,7.38
2024-01-05T06:37:47.539Z,7.37
2024-01-05T06:40:14.229Z,7.35
2024-01-05T06:42:40.851Z,7.35
2024-01-05T06:45:08.874Z,7.35
2024-01-05T06:47:35.455Z,7.35
2024-01-05T06:50:02.242Z,7.34
2024-01-05T06:52:29.044Z,7.34
2024-01-05T06:54:55.719Z,7.32
2024-01-05T06:57:27.549Z,7.32
2024-01-05T06:59:54.205Z,7.31
2024-01-05T07:02:20.759Z,7.29
2024-01-05T07:04:47.328Z,7.26
2024-01-05T07:07:17.185Z,7.24
2024-01-05T07:09:44.230Z,7.22
2024-01-05T07:12:11.535Z,7.21
2024-01-05T07:14:40.566Z,7.20
2024-01-05T07:17:07.293Z,7.18
2024-01-05T07:19:34.127Z,7.15
2024-01-05T07:22:00.689Z,7.10
2024-01-05T07:24:29.660Z,7.05
2024-01-05T07:26:56.222Z,7.03
2024-01-05T07:29:22.929Z,7.01
2024-01-05T07:31:49.441Z,6.98
2024-01-05T07:34:21.009Z,6.95
2024-01-05T07:36:50.189Z,6.96
2024-01-05T07:39:18.790Z,6.93
2024-01-05T07:41:45.640Z,6.90
2024-01-05T07:44:12.400Z,6.85
2024-01-05T07:46:42.301Z,6.80
2024-01-05T07:49:09.897Z,6.76
2024-01-05T07:51:38.737Z,6.72
2024-01-05T07:54:07.020Z,6.70
2024-01-05T07:56:38.673Z,6.65
2024-01-05T07:59:05.989Z,6.62
2024-01-05T08:01:32.562Z,6.58
2024-01-05T08:04:01.882Z,6.54
2024-01-05T08:06:28.604Z,6.48
2024-01-05T08:08:55.343Z,6.46
2024-01-05T08:11:28.198Z,6.42
2024-01-05T08:13:55.167Z,6.40
2024-01-05T08:16:23.960Z,6.39
2024-01-05T08:18:51.260Z,6.36
2024-01-05T08:21:20.512Z,6.34
2024-01-05T08:23:47.870Z,6.33
2024-01-05T08:26:18.913Z,6.30
2024-01-05T08:28:49.143Z,6.30
2024-01-05T08:31:16.147Z,6.30
2024-01-05T08:33:42.858Z,6.29
2024-01-05T08:36:12.286Z,6.25
2024-01-05T08:38:41.303Z,6.26
2024-01-05T08:41:07.887Z,6.24
2024-01-05T08:43:38.043Z,6.22
2024-01-05T08:46:05.395Z,6.22
2024-01-05T08:48:32.009Z,6.20
2024-01-05T08:50:58.855Z,6.18
2024-01-05T08:53:25.431Z,6.16
2024-01-05T08:55:54.516Z,6.15
2024-01-05T08:58:23.387Z,6.12
2024-01-05T09:00:50.083Z,6.09
2024-01-05T09:03:17.048Z,6.08
2024-01-05T09:05:43.852Z,6.07
2024-01-05T09:08:11.029Z,6.06
2024-01-05T09:10:40.438Z,6.06
2024-01-05T09:13:11.737Z,6.08
2024-01-05T09:15:38.454Z,6.06
2024-01-05T09:18:06.472Z,6.08
2024-01-05T09:20:33.066Z,6.04
2024-01-05T09:22:59.677Z,6.06
2024-01-05T09:25:26.220Z,6.06
2024-01-05T09:27:52.940Z,6.05
2024-01-05T09:30:22.312Z,6.05
2024-01-05T09:32:51.292Z,6.01
2024-01-05T09:35:20.411Z,5.99
2024-01-05T09:37:46.969Z,5.97
2024-01-05T09:40:15.797Z,5.94
2024-01-05T09:42:50.821Z,5.90
2024-01-05T09:45:21.169Z,5.91
2024-01-05T09:47:55.187Z,5.95
2024-01-05T09:50:22.014Z,5.93
2024-01-05T09:52:48.760Z,5.95
2024-01-05T09:55:18.225Z,5.93
2024-01-05T09:57:46.292Z,5.92
2024-01-05T10:00:19.619Z,5.89
2024-01-05T10:02:57.121Z,5.88
2024-01-05T10:05:23.732Z,5.89
2024-01-05T10:07:52.873Z,5.83
2024-01-05T10:10:20.062Z,5.76
2024-01-05T10:12:49.286Z,5.70
2024-01-05T10:15:18.442Z,5.69
2024-01-05T10:17:45.150Z,5.66
2024-01-05T10:20:15.426Z,5.62
2024-01-05T10:22:44.918Z,5.60
2024-01-05T10:25:16.564Z,5.59
2024-01-05T10:27:43.404Z,5.58
2024-01-05T10:30:25.123Z,5.60
2024-01-05T10:33:08.477Z,5.59
2024-01-05T10:35:38.063Z,5.59
2024-01-05T10:38:12.534Z,5.62
2024-01-05T10:40:39.844Z,5.60
2024-01-05T10:43:11.726Z,5.60
2024-01-05T10:45:40.770Z,5.60
2024-01-05T10:48:16.033Z,5.61
2024-01-05T10:50:49.396Z,5.63
2024-01-05T10:53:17.656Z,5.64
2024-01-05T10:55:47.539Z,5.65
2024-01-05T10:58:14.176Z,5.66
2024-01-05T11:00:45.873Z,5.69
2024-01-05T11:03:15.849Z,5.71
2024-01-05T11:05:43.518Z,5.72
2024-01-05T11:08:35.343Z,5.74
2024-01-05T11:11:09.022Z,5.73
2024-01-05T11:13:47.840Z,5.75
2024-01-05T11:16:42.320Z,5.78
2024-01-05T11:19:25.881Z,5.79
2024-01-05T11:22:00.801Z,5.79
2024-01-05T11:24:28.714Z,5.79
2024-01-05T11:26:58.708Z,5.83
2024-01-05T11:29:46.622Z,5.81
2024-01-05T11:32:50.974Z,5.83
2024-01-05T11:35:26.471Z,5.82
2024-01-05T11:37:53.094Z,5.83
2024-01-05T11:40:32.742Z,5.85
2024-01-05T11:43:21.599Z,5.87
2024-01-05T11:45:50.892Z,5.87
2024-01-05T11:48:37.110Z,5.87
2024-01-05T11:51:09.002Z,5.88
2024-01-05T11:53:37.659Z,5.90
2024-01-05T11:56:09.487Z,5.90
2024-01-05T11:58:42.204Z,5.92
2024-01-05T12:01:13.723Z,5.94
2024-01-05T12:03:44.588Z,5.98
2024-01-05T12:06:12.765Z,5.99
2024-01-05T12:08:41.217Z,6.00
2024-01-05T12:11:10.035Z,6.00
2024-01-05T12:13:39.004Z,6.00
2024-01-05T12:16:07.631Z,6.00
2024-01-05T12:18:47.014Z,5.97
2024-01-05T12:21:21.785Z,5.97
2024-01-05T12:23:58.383Z,5.94
2024-01-05T12:26:26.542Z,5.93
2024-01-05T12:28:53.553Z,5.92
2024-01-05T12:31:24.016Z,5.89
2024-01-05T12:33:51.226Z,5.90
2024-01-05T12:36:26.015Z,5.87
2024-01-05T12:38:52.632Z,5.88
2024-01-05T12:41:22.761Z,5.85
2024-01-05T12:43:51.611Z,5.85
2024-01-05T12:46:23.957Z,5.84
2024-01-05T12:48:52.058Z,5.86
2024-01-05T12:51:24.890Z,5.87
2024-01-05T12:54:05.077Z,5.89
2024-01-05T12:56:32.432Z,5.90
2024-01-05T12:58:59.163Z,5.89
2024-01-05T13:01:27.153Z,5.92
2024-01-05T13:03:56.647Z,5.93
2024-01-05T13:06:30.851Z,5.92
2024-01-05T13:09:00.017Z,5.93
2024-01-05T13:11:28.961Z,5.91
2024-01-05T13:13:58.139Z,5.93
2024-01-05T13:16:24.687Z,5.93
2024-01-05T13:18:53.970Z,5.94
2024-01-05T13:21:23.563Z,5.95
2024-01-05T13:23:53.468Z,5.99
2024-01-05T13:26:20.074Z,6.05
2024-01-05T13:28:46.820Z,6.16
2024-01-05T13:31:13.554Z,6.25
2024-01-05T13:33:41.766Z,6.32
2024-01-05T13:36:08.596Z,6.34
2024-01-05T13:38:40.796Z,6.39
2024-01-05T13:41:07.560Z,6.41
2024-01-05T13:43:35.819Z,6.46
2024-01-05T13:46:04.338Z,6.52
2024-01-05T13:48:31.066Z,6.57
2024-01-05T13:50:57.666Z,6.62
2024-01-05T13:53:26.758Z,6.66
2024-01-05T13:55:54.051Z,6.69
2024-01-05T13:58:21.026Z,6.72
2024-01-05T14:00:54.907Z,6.75
2024-01-05T14:03:22.582Z,6.76
2024-01-05T14:05:52.547Z,6.74
2024-01-05T14:08:22.478Z,6.76
2024-01-05T14:10:53.124Z,6.76
2024-01-05T14:13:24.534Z,6.78
2024-01-05T14:15:54.628Z,6.77
2024-01-05T14:18:21.460Z,6.76
2024-01-05T14:20:51.749Z,6.76
2024-01-05T14:23:18.332Z,6.76
2024-01-05T14:25:47.268Z,6.76
2024-01-05T14:28:16.691Z,6.73
2024-01-05T14:30:43.811Z,6.71
2024-01-05T14:33:10.537Z,6.71
2024-01-05T14:35:37.651Z,6.70
2024-01-05T14:38:08.778Z,6.69
2024-01-05T14:40:37.987Z,6.70
2024-01-05T14:43:04.731Z,6.69
2024-01-05T14:45:33.786Z,6.70
2024-01-05T14:48:00.850Z,6.70
2024-01-05T14:50:27.537Z,6.66
2024-01-05T14:53:00.048Z,6.64
2024-01-05T14:55:37.235Z,6.61
2024-01-05T14:58:05.295Z,6.60
2024-01-05T15:00:34.623Z,6.60
2024-01-05T15:03:05.545Z,6.58
2024-01-05T15:05:32.285Z,6.55
2024-01-05T15:08:01.120Z,6.52
2024-01-05T15:10:33.168Z,6.51
2024-01-05T15:13:01.505Z,6.52
2024-01-05T15:15:28.580Z,6.50
2024-01-05T15:17:57.786Z,6.51
2024-01-05T15:20:30.051Z,6.50
2024-01-05T15:22:56.676Z,6.51
2024-01-05T15:25:23.343Z,6.51
2024-01-05T15:27:54.740Z,6.48
2024-01-05T15:30:22.681Z,6.49
2024-01-05T15:32:52.064Z,6.47
2024-01-05T15:35:18.710Z,6.47
2024-01-05T15:37:48.121Z,6.45
2024-01-05T15:42:50.342Z,6.43
2024-01-05T15:45:17.435Z,6.43
2024-01-05T15:47:44.114Z,6.41
2024-01-05T15:50:11.106Z,6.38
2024-01-05T15:52:40.623Z,6.35
2024-01-05T15:55:12.814Z,6.32
2024-01-05T15:57:42.055Z,6.30
2024-01-05T16:00:09.313Z,6.27
2024-01-05T16:02:35.928Z,6.25
2024-01-05T16:05:05.021Z,6.23
2024-01-05T16:07:32.409Z,6.21
2024-01-05T16:10:01.587Z,6.20
2024-01-05T16:12:31.280Z,6.19
2024-01-05T16:15:00.339Z,6.16
2024-01-05T16:17:33.794Z,6.13
2024-01-05T16:20:00.595Z,6.13
2024-01-05T16:22:33.748Z,6.12
2024-01-05T16:25:00.626Z,6.11
2024-01-05T16:27:29.696Z,6.13
2024-01-05T16:29:58.539Z,6.13
2024-01-05T16:32:25.135Z,6.10
2024-01-05T16:34:51.732Z,6.08
2024-01-05T16:37:18.357Z,6.06
2024-01-05T16:39:46.107Z,6.02
2024-01-05T16:42:13.183Z,6.02
2024-01-05T16:44:42.982Z,5.99
2024-01-05T16:47:09.623Z,5.97
2024-01-05T16:49:36.360Z,5.94
2024-01-05T16:52:08.052Z,5.92
2024-01-05T16:54:34.860Z,5.89
2024-01-05T16:57:04.792Z,5.90
2024-01-05T16:59:33.020Z,5.88
2024-01-05T17:02:02.229Z,5.88
2024-01-05T17:04:28.951Z,5.87
2024-01-05T17:06:55.874Z,5.89
2024-01-05T17:09:23.002Z,5.89
2024-01-05T17:11:49.530Z,5.91
2024-01-05T17:14:16.140Z,5.92
2024-01-05T17:16:46.698Z,5.93
2024-01-05T17:19:17.949Z,5.95
2024-01-05T17:21:44.747Z,5.95
2024-01-05T17:24:15.060Z,5.96
2024-01-05T17:26:44.388Z,5.97
2024-01-05T17:29:11.091Z,6.00
2024-01-05T17:31:40.000Z,5.99
2024-01-05T17:34:06.698Z,5.99
2024-01-05T17:36:41.111Z,6.01
2024-01-05T17:39:07.902Z,6.00
2024-01-05T17:41:37.383Z,6.02
2024-01-05T17:44:07.063Z,6.04
2024-01-05T17:46:38.027Z,6.05
2024-01-05T17:49:04.842Z,6.05
2024-01-05T17:51:40.754Z,6.06
2024-01-05T17:54:08.069Z,6.06
2024-01-05T17:56:37.305Z,6.05
2024-01-05T17:59:05.139Z,6.05
2024-01-05T18:01:33.121Z,6.03
2024-01-05T18:04:02.282Z,6.04
2024-01-05T18:06:31.615Z,6.04
2024-01-05T18:08:59.600Z,6.06
2024-01-05T18:11:27.315Z,6.06
2024-01-05T18:13:54.744Z,6.07
2024-01-05T18:16:26.110Z,6.10
2024-01-05T18:18:53.930Z,6.10
2024-01-05T18:21:25.800Z,6.09
2024-01-05T18:23:56.339Z,6.08
2024-01-05T18:26:24.614Z,6.09
2024-01-05T18:28:51.741Z,6.09
2024-01-05T18:31:32.161Z,6.10
2024-01-05T18:34:01.130Z,6.10
2024-01-05T18:36:30.351Z,6.11
2024-01-05T18:38:57.477Z,6.12
2024-01-05T18:41:29.921Z,6.11
2024-01-05T18:43:56.489Z,6.11
2024-01-05T18:46:23.036Z,6.08
2024-01-05T18:48:54.588Z,6.10
2024-01-05T18:51:26.648Z,6.10
2024-01-05T18:53:53.263Z,6.11
2024-01-05T18:56:22.361Z,6.10
2024-01-05T18:58:49.052Z,6.10
2024-01-05T19:01:16.311Z,6.10
2024-01-05T19:03:43.033Z,6.10
2024-01-05T19:06:17.445Z,6.11
2024-01-05T19:08:44.939Z,6.12
2024-01-05T19:11:11.627Z,6.11
2024-01-05T19:13:38.595Z,6.12
2024-01-05T19:16:11.212Z,6.11
2024-01-05T19:18:40.339Z,6.13
2024-01-05T19:21:09.015Z,6.12
2024-01-05T19:23:38.077Z,6.12
2024-01-05T19:26:04.791Z,6.14
2024-01-05T19:28:35.953Z,6.16
2024-01-05T19:31:02.882Z,6.18
2024-01-05T19:33:30.342Z,6.18
2024-01-05T19:35:59.460Z,6.18
2024-01-05T19:38:29.323Z,6.19
2024-01-05T19:40:55.862Z,6.18
2024-01-05T19:43:27.165Z,6.20
2024-01-05T19:45:53.912Z,6.18
2024-01-05T19:48:23.082Z,6.18
2024-01-05T19:50:50.098Z,6.18
2024-01-05T19:53:19.535Z,6.20
2024-01-05T19:55:46.204Z,6.20
2024-01-05T19:58:15.698Z,6.19
2024-01-05T20:00:44.570Z,6.20
2024-01-05T20:03:14.584Z,6.22
2024-01-05T20:05:42.451Z,6.19
2024-01-05T20:08:11.590Z,6.19
2024-01-05T20:10:39.276Z,6.20
2024-01-05T20:13:05.862Z,6.21
2024-01-05T20:15:35.252Z,6.21
2024-01-05T20:18:07.696Z,6.23
2024-01-05T20:20:36.767Z,6.25
2024-01-05T20:23:08.111Z,6.24
2024-01-05T20:25:36.951Z,6.24
2024-01-05T20:28:08.907Z,6.23
2024-01-05T20:30:36.011Z,6.24
2024-01-05T20:33:03.754Z,6.24
2024-01-05T20:35:30.433Z,6.23
2024-01-05T20:37:57.826Z,6.25
2024-01-05T20:40:24.900Z,6.24
2024-01-05T20:42:51.664Z,6.22
2024-01-05T20:45:23.204Z,6.24
2024-01-05T20:47:49.841Z,6.23
2024-01-05T20:50:16.467Z,6.24
2024-01-05T20:52:45.546Z,6.24
2024-01-05T20:55:12.255Z,6.24
2024-01-05T20:57:41.332Z,6.25
2024-01-05T21:00:14.221Z,6.25
2024-01-05T21:02:40.903Z,6.25
2024-01-05T21:05:08.316Z,6.26
2024-01-05T21:07:36.668Z,6.25
2024-01-05T21:10:05.175Z,6.25
2024-01-05T21:12:31.792Z,6.27
2024-01-05T21:15:01.245Z,6.29
2024-01-05T21:17:30.248Z,6.28
2024-01-05T21:19:56.858Z,6.27
2024-01-05T21:22:23.457Z,6.26
2024-01-05T21:24:55.403Z,6.27
2024-01-05T21:27:22.221Z,6.26
2024-01-05T21:29:51.336Z,6.24
2024-01-05T21:32:21.377Z,6.24
2024-01-05T21:34:50.248Z,6.21
2024-01-05T21:37:18.880Z,6.21
2024-01-05T21:39:45.804Z,6.20
2024-01-05T21:42:13.007Z,6.20
2024-01-05T21:44:41.847Z,6.20
2024-01-05T21:47:08.756Z,6.19
2024-01-05T21:49:38.453Z,6.18
2024-01-05T21:52:11.022Z,6.19
2024-01-05T21:54:38.253Z,6.16
2024-01-05T21:57:05.269Z,6.16
2024-01-05T21:59:34.588Z,6.15
2024-01-05T22:02:01.850Z,6.14
2024-01-05T22:04:31.119Z,6.10
2024-01-05T22:06:59.016Z,6.13
2024-01-05T22:09:25.775Z,6.16
2024-01-05T22:11:55.017Z,6.15
2024-01-05T22:14:24.523Z,6.07
2024-01-05T22:16:53.903Z,5.94
2024-01-05T22:19:23.227Z,5.86
2024-01-05T22:21:49.909Z,5.81
2024-01-05T22:24:16.581Z,5.82
2024-01-05T22:26:43.200Z,5.75
2024-01-05T22:29:12.303Z,5.69
2024-01-05T22:31:39.134Z,5.68
2024-01-05T22:34:05.957Z,5.64
2024-01-05T22:36:35.016Z,5.60
2024-01-05T22:39:01.660Z,5.56
2024-01-05T22:41:30.911Z,5.49
2024-01-05T22:43:57.972Z,5.46
2024-01-05T22:46:24.927Z,5.42
2024-01-05T22:48:51.547Z,5.37
2024-01-05T22:51:28.018Z,5.34
2024-01-05T22:53:57.247Z,5.31
2024-01-05T22:56:23.825Z,5.30
2024-01-05T22:58:50.500Z,5.31
2024-01-05T23:01:24.174Z,5.28
2024-01-05T23:03:52.836Z,5.28
2024-01-05T23:06:20.400Z,5.27
2024-01-05T23:08:49.610Z,5.26
2024-01-05T23:11:18.370Z,5.27
2024-01-05T23:13:45.071Z,5.28
2024-01-05T23:16:12.196Z,5.30
2024-01-05T23:18:38.874Z,5.30
2024-01-05T23:21:08.095Z,5.30
2024-01-05T23:23:38.105Z,5.30
2024-01-05T23:26:05.254Z,5.28
2024-01-05T23:28:31.811Z,5.23
2024-01-05T23:30:58.418Z,5.20
2024-01-05T23:33:25.061Z,5.17
2024-01-05T23:35:56.654Z,5.15
2024-01-05T23:38:23.359Z,5.13
2024-01-05T23:40:50.313Z,5.11
2024-01-05T23:43:17.303Z,5.09
2024-01-05T23:45:46.351Z,5.04
2024-01-05T23:48:16.367Z,5.02
2024-01-05T23:50:47.615Z,5.00
2024-01-05T23:53:16.575Z,4.97
2024-01-05T23:55:43.492Z,4.95
2024-01-05T23:58:10.271Z,4.93
